Vina, Alabama
Current Conditions -  °F | °C
As of 1:56 PM on Sunday 25 Jan 2015 (Local Time) from K1M4 Reporting Station
Clear Clear  
Wind Chill: 55°   Ceiling: Unl
Heat Index: 55°   Visibility: 10mi
Dew Point: 36°   Wind: 12mph
Humidity: 49%   Direction: 220°SW
Pressure: 29.71"   Gusts: NA
Location:  34.38°N, 88.06°W
Report Text: K1M4 251956Z AUTO 22010KT 10SM CLR 13/02 A2971 RMK AO2 T01270022 SLP076
Loading
Personal Weather Stations






























Interactive Weather Map New forecast layout! Learn more

10-Day Weather Forecast

Advertisements
Track Severe Weather on mobile